createdAt,value
2019-04-21T00:02:18.796Z,10.60
2019-04-21T00:05:33.447Z,10.50
2019-04-21T00:08:45.137Z,10.50
2019-04-21T00:11:49.637Z,10.50
2019-04-21T00:14:47.178Z,10.30
2019-04-21T00:17:49.333Z,10.30
2019-04-21T00:20:54.588Z,10.30
2019-04-21T00:24:26.548Z,10.30
2019-04-21T00:27:33.821Z,10.20
2019-04-21T00:30:45.234Z,10.10
2019-04-21T00:33:34.341Z,10.00
2019-04-21T00:36:48.890Z,10.00
2019-04-21T00:40:06.386Z,10.00
2019-04-21T00:43:03.724Z,9.80
2019-04-21T00:46:04.850Z,9.90
2019-04-21T00:49:18.273Z,9.80
2019-04-21T00:52:46.004Z,9.80
2019-04-21T00:55:44.517Z,9.90
2019-04-21T00:58:47.736Z,9.80
2019-04-21T01:01:49.334Z,9.80
2019-04-21T01:05:00.134Z,9.70
2019-04-21T01:08:05.127Z,9.50
2019-04-21T01:11:12.321Z,9.40
2019-04-21T01:14:27.241Z,9.50
2019-04-21T01:17:22.956Z,9.50
2019-04-21T01:20:16.875Z,9.40
2019-04-21T01:23:15.048Z,9.50
2019-04-21T01:26:32.579Z,9.60
2019-04-21T01:29:46.564Z,9.60
2019-04-21T01:32:53.988Z,9.60
2019-04-21T01:35:58.359Z,9.60
2019-04-21T01:39:07.929Z,9.70
2019-04-21T01:42:12.726Z,9.70
2019-04-21T01:45:18.905Z,9.80
2019-04-21T01:48:21.568Z,9.60
2019-04-21T01:51:28.105Z,9.50
2019-04-21T01:54:43.585Z,9.30
2019-04-21T01:57:48.096Z,9.40
2019-04-21T02:00:52.039Z,9.20
2019-04-21T02:07:12.990Z,9.20
2019-04-21T02:10:21.108Z,9.10
2019-04-21T02:13:17.125Z,9.10
2019-04-21T02:16:28.292Z,9.00
2019-04-21T02:19:28.659Z,8.90
2019-04-21T02:22:46.348Z,8.90
2019-04-21T02:25:44.268Z,8.80
2019-04-21T02:28:58.952Z,8.90
2019-04-21T02:32:10.401Z,9.00
2019-04-21T02:38:33.800Z,8.80
2019-04-21T02:41:31.183Z,8.70
2019-04-21T02:44:37.504Z,8.60
2019-04-21T02:47:50.395Z,8.50
2019-04-21T02:50:47.274Z,8.40
2019-04-21T02:54:28.593Z,8.40
2019-04-21T02:57:03.280Z,8.30
2019-04-21T03:03:26.006Z,8.30
2019-04-21T03:06:29.494Z,8.30
2019-04-21T03:09:33.523Z,8.30
2019-04-21T03:12:28.990Z,8.30
2019-04-21T03:15:47.269Z,8.30
2019-04-21T03:18:56.564Z,8.20
2019-04-21T03:21:57.244Z,8.20
2019-04-21T03:32:02.097Z,8.00
2019-04-21T03:34:41.187Z,8.00
2019-04-21T03:37:35.400Z,8.00
2019-04-21T03:40:32.300Z,7.90
2019-04-21T03:43:47.961Z,7.90
2019-04-21T03:47:01.699Z,7.90
2019-04-21T03:53:07.009Z,7.80
2019-04-21T03:59:12.663Z,7.80
2019-04-21T04:02:26.324Z,7.70
2019-04-21T04:06:02.026Z,7.60
2019-04-21T04:09:14.282Z,7.60
2019-04-21T04:15:18.657Z,7.50
2019-04-21T04:18:29.894Z,7.50
2019-04-21T04:21:30.785Z,7.40
2019-04-21T04:24:31.664Z,7.30
2019-04-21T04:27:51.483Z,7.30
2019-04-21T04:30:47.595Z,7.20
2019-04-21T04:37:05.395Z,7.20
2019-04-21T04:40:23.300Z,7.20
2019-04-21T04:43:27.894Z,7.30
2019-04-21T04:46:18.399Z,7.30
2019-04-21T04:49:38.669Z,7.40
2019-04-21T04:55:39.533Z,7.30
2019-04-21T04:59:20.107Z,7.40
2019-04-21T05:05:07.084Z,7.60
2019-04-21T05:08:14.369Z,7.60
2019-04-21T05:11:23.028Z,7.70
2019-04-21T05:17:30.960Z,7.80
2019-04-21T05:20:41.854Z,7.80
2019-04-21T05:23:26.691Z,7.90
2019-04-21T05:26:27.405Z,7.90
2019-04-21T05:29:37.589Z,8.10
2019-04-21T05:33:00.012Z,8.20
2019-04-21T05:36:11.106Z,8.20
2019-04-21T05:39:24.817Z,8.30
2019-04-21T05:42:35.329Z,8.30
2019-04-21T05:45:50.039Z,8.50
2019-04-21T05:49:00.816Z,8.70
2019-04-21T05:52:00.237Z,8.90
2019-04-21T05:55:16.680Z,9.10
2019-04-21T05:58:16.399Z,9.20
2019-04-21T06:01:55.534Z,9.40
2019-04-21T06:04:52.631Z,9.60
2019-04-21T06:07:55.285Z,9.80
2019-04-21T06:10:47.397Z,10.10
2019-04-21T06:13:55.532Z,10.60
2019-04-21T06:17:01.500Z,11.60
2019-04-21T06:23:13.570Z,13.80
2019-04-21T06:26:44.897Z,15.10
2019-04-21T06:29:26.448Z,16.60
2019-04-21T06:41:58.557Z,22.50
2019-04-21T06:45:20.187Z,23.20
2019-04-21T06:48:18.439Z,23.10
2019-04-21T06:51:26.546Z,22.80
2019-04-21T06:54:29.153Z,22.00
2019-04-21T06:57:35.732Z,20.90
2019-04-21T07:00:39.118Z,19.90
2019-04-21T07:03:55.480Z,19.20
2019-04-21T07:06:56.258Z,18.60
2019-04-21T07:10:01.440Z,18.10
2019-04-21T07:13:03.906Z,18.00
2019-04-21T07:16:10.745Z,17.90
2019-04-21T07:19:21.395Z,18.00
2019-04-21T07:22:24.693Z,18.00
2019-04-21T07:25:32.791Z,18.10
2019-04-21T07:28:46.149Z,18.10
2019-04-21T07:31:47.129Z,17.80
2019-04-21T07:34:51.414Z,17.60
2019-04-21T07:37:53.495Z,17.70
2019-04-21T07:40:53.889Z,17.70
2019-04-21T07:43:59.762Z,17.90
2019-04-21T07:47:13.414Z,18.10
2019-04-21T07:50:28.594Z,18.30
2019-04-21T07:53:40.641Z,17.90
2019-04-21T07:56:32.460Z,18.10
2019-04-21T07:59:56.553Z,18.20
2019-04-21T08:02:54.457Z,18.10
2019-04-21T08:06:02.390Z,18.10
2019-04-21T08:09:08.936Z,18.10
2019-04-21T08:12:08.118Z,18.20
2019-04-21T08:15:36.523Z,18.50
2019-04-21T08:18:27.008Z,18.80
2019-04-21T08:21:37.157Z,18.90
2019-04-21T08:24:42.580Z,19.20
2019-04-21T08:27:56.815Z,19.40
2019-04-21T08:30:50.217Z,19.50
2019-04-21T08:34:00.726Z,19.70
2019-04-21T08:37:08.768Z,19.60
2019-04-21T08:40:15.757Z,19.80
2019-04-21T08:43:23.820Z,20.00
2019-04-21T08:46:26.722Z,20.10
2019-04-21T08:49:27.761Z,20.00
2019-04-21T08:52:44.463Z,20.10
2019-04-21T08:55:55.418Z,20.10
2019-04-21T08:59:22.226Z,20.20
2019-04-21T09:02:27.102Z,20.30
2019-04-21T09:05:23.376Z,20.60
2019-04-21T09:08:32.872Z,20.70
2019-04-21T09:11:40.362Z,20.70
2019-04-21T09:14:50.685Z,20.80
2019-04-21T09:17:44.761Z,21.00
2019-04-21T09:21:01.106Z,21.00
2019-04-21T09:24:04.586Z,21.20
2019-04-21T09:27:11.297Z,21.30
2019-04-21T09:30:04.748Z,21.60
2019-04-21T09:33:07.397Z,21.70
2019-04-21T09:36:15.234Z,21.90
2019-04-21T09:39:22.252Z,21.90
2019-04-21T09:42:33.201Z,22.00
2019-04-21T09:45:30.818Z,22.20
2019-04-21T09:48:48.521Z,22.10
2019-04-21T09:51:41.840Z,22.20
2019-04-21T09:54:56.448Z,22.30
2019-04-21T09:57:56.936Z,22.40
2019-04-21T10:01:09.816Z,22.60
2019-04-21T10:04:05.803Z,22.90
2019-04-21T10:07:23.389Z,23.00
2019-04-21T10:10:17.341Z,23.20
2019-04-21T10:13:22.989Z,23.40
2019-04-21T10:16:40.575Z,23.50
2019-04-21T10:19:46.376Z,23.60
2019-04-21T10:22:51.272Z,23.80
2019-04-21T10:25:56.824Z,24.00
2019-04-21T10:29:08.229Z,24.30
2019-04-21T10:32:09.071Z,24.20
2019-04-21T10:35:15.007Z,24.10
2019-04-21T10:38:30.190Z,24.10
2019-04-21T10:41:27.577Z,24.40
2019-04-21T10:44:32.330Z,24.30
2019-04-21T10:47:38.786Z,24.20
2019-04-21T10:50:45.212Z,24.00
2019-04-21T10:53:53.871Z,24.10
2019-04-21T10:56:58.829Z,24.10
2019-04-21T11:00:04.498Z,24.20
2019-04-21T11:03:29.061Z,24.10
2019-04-21T11:06:34.757Z,23.90
2019-04-21T11:09:40.203Z,24.10
2019-04-21T11:12:47.565Z,24.30
2019-04-21T11:15:50.995Z,24.30
2019-04-21T11:18:56.014Z,24.50
2019-04-21T11:22:01.100Z,24.70
2019-04-21T11:25:07.435Z,24.80
2019-04-21T11:28:14.304Z,24.90
2019-04-21T11:31:18.773Z,24.80
2019-04-21T11:34:25.077Z,24.70
2019-04-21T11:37:32.321Z,24.80
2019-04-21T11:40:38.084Z,24.50
2019-04-21T11:43:43.266Z,24.60
2019-04-21T11:46:48.815Z,24.40
2019-04-21T11:49:54.861Z,24.60
2019-04-21T11:52:59.373Z,25.00
2019-04-21T11:56:04.865Z,25.10
2019-04-21T11:59:09.963Z,25.00
2019-04-21T12:02:15.227Z,25.00
2019-04-21T12:05:21.343Z,24.80
2019-04-21T12:08:33.207Z,25.00
2019-04-21T12:11:33.681Z,25.00
2019-04-21T12:14:39.625Z,25.10
2019-04-21T12:17:45.845Z,25.30
2019-04-21T12:20:51.624Z,25.70
2019-04-21T12:23:56.663Z,25.30
2019-04-21T12:27:02.253Z,25.40
2019-04-21T12:30:11.421Z,25.40
2019-04-21T12:33:18.195Z,25.50
2019-04-21T12:36:24.049Z,25.80
2019-04-21T12:39:30.436Z,25.70
2019-04-21T12:42:37.627Z,25.40
2019-04-21T12:45:42.024Z,25.10
2019-04-21T12:48:46.920Z,25.10
2019-04-21T12:51:51.588Z,25.30
2019-04-21T12:54:57.602Z,25.50
2019-04-21T12:58:03.407Z,25.70
2019-04-21T13:01:09.222Z,25.70
2019-04-21T13:04:13.828Z,25.60
2019-04-21T13:07:19.407Z,25.70
2019-04-21T13:10:24.424Z,25.70
2019-04-21T13:13:30.144Z,25.80
2019-04-21T13:16:34.758Z,25.90
2019-04-21T13:19:39.200Z,26.10
2019-04-21T13:22:43.981Z,26.40
2019-04-21T13:25:49.751Z,26.60
2019-04-21T13:28:54.446Z,26.40
2019-04-21T13:32:00.132Z,26.40
2019-04-21T13:35:06.113Z,26.40
2019-04-21T13:38:19.949Z,26.60
2019-04-21T13:41:32.811Z,26.90
2019-04-21T13:44:24.953Z,26.90
2019-04-21T13:47:30.530Z,26.80
2019-04-21T13:50:35.466Z,26.90
2019-04-21T13:53:40.013Z,27.10
2019-04-21T13:56:44.998Z,27.30
2019-04-21T13:59:51.252Z,27.00
2019-04-21T14:02:56.453Z,27.00
2019-04-21T14:06:02.402Z,26.80
2019-04-21T14:09:10.996Z,26.60
2019-04-21T14:12:15.441Z,26.60
2019-04-21T14:15:22.035Z,26.70
2019-04-21T14:18:27.057Z,26.90
2019-04-21T14:21:31.786Z,27.10
2019-04-21T14:24:37.086Z,27.00
2019-04-21T14:27:44.302Z,27.00
2019-04-21T14:30:50.350Z,26.60
2019-04-21T14:33:56.308Z,26.50
2019-04-21T14:37:02.544Z,26.60
2019-04-21T14:40:15.519Z,26.80
2019-04-21T14:43:16.464Z,26.30
2019-04-21T14:46:22.947Z,26.40
2019-04-21T14:49:47.149Z,26.50
2019-04-21T14:53:08.128Z,26.80
2019-04-21T14:56:13.280Z,27.20
2019-04-21T14:59:19.228Z,27.20
2019-04-21T15:02:23.712Z,27.10
2019-04-21T15:05:29.369Z,26.90
2019-04-21T15:08:35.235Z,26.50
2019-04-21T15:11:40.183Z,26.50
2019-04-21T15:14:44.941Z,26.80
2019-04-21T15:17:49.527Z,27.00
2019-04-21T15:20:55.182Z,26.90
2019-04-21T15:24:00.399Z,26.70
2019-04-21T15:27:05.118Z,26.30
2019-04-21T15:30:11.054Z,26.30
2019-04-21T15:33:16.274Z,26.10
2019-04-21T15:36:21.055Z,25.60
2019-04-21T15:39:25.785Z,25.60
2019-04-21T15:42:30.637Z,25.80
2019-04-21T15:45:35.103Z,26.20
2019-04-21T15:48:41.117Z,26.60
2019-04-21T15:51:46.389Z,26.70
2019-04-21T15:54:52.456Z,26.80
2019-04-21T15:58:02.610Z,26.80
2019-04-21T16:01:21.165Z,26.50
2019-04-21T16:04:25.612Z,26.00
2019-04-21T16:07:30.062Z,26.00
2019-04-21T16:10:43.677Z,25.70
2019-04-21T16:13:41.680Z,25.60
2019-04-21T16:16:47.458Z,25.50
2019-04-21T16:19:52.254Z,25.50
2019-04-21T16:22:56.904Z,25.50
2019-04-21T16:26:02.585Z,25.20
2019-04-21T16:29:08.965Z,24.90
2019-04-21T16:32:16.353Z,24.50
2019-04-21T16:35:21.727Z,24.20
2019-04-21T16:38:26.622Z,23.80
2019-04-21T16:41:32.134Z,23.70
2019-04-21T16:44:37.055Z,23.50
2019-04-21T16:47:42.146Z,23.50
2019-04-21T16:50:47.803Z,23.50
2019-04-21T16:53:53.988Z,23.50
2019-04-21T16:57:03.730Z,23.30
2019-04-21T17:00:12.798Z,23.30
2019-04-21T17:03:18.826Z,23.30
2019-04-21T17:06:24.864Z,23.30
2019-04-21T17:09:30.653Z,23.20
2019-04-21T17:12:35.663Z,23.20
2019-04-21T17:15:56.613Z,23.20
2019-04-21T17:18:57.440Z,23.10
2019-04-21T17:21:53.505Z,22.90
2019-04-21T17:24:58.335Z,22.70
2019-04-21T17:28:03.580Z,22.50
2019-04-21T17:31:08.596Z,22.50
2019-04-21T17:34:17.990Z,22.40
2019-04-21T17:37:22.036Z,22.30
2019-04-21T17:40:27.312Z,22.20
2019-04-21T17:43:32.000Z,22.00
2019-04-21T17:46:45.824Z,21.90
2019-04-21T17:49:43.130Z,21.80
2019-04-21T17:53:10.696Z,21.60
2019-04-21T17:56:48.132Z,21.50
2019-04-21T17:59:53.737Z,21.30
2019-04-21T18:02:47.906Z,21.10
2019-04-21T18:05:46.917Z,20.90
2019-04-21T18:09:04.392Z,20.60
2019-04-21T18:12:05.790Z,20.30
2019-04-21T18:15:01.436Z,20.10
2019-04-21T18:17:58.678Z,19.80
2019-04-21T18:21:14.580Z,19.60
2019-04-21T18:24:31.876Z,19.50
2019-04-21T18:27:29.716Z,19.20
2019-04-21T18:30:48.718Z,19.00
2019-04-21T18:34:03.497Z,19.10
2019-04-21T18:37:05.488Z,19.00
2019-04-21T18:40:16.762Z,19.00
2019-04-21T18:43:48.918Z,18.90
2019-04-21T18:46:52.567Z,18.80
2019-04-21T18:49:44.096Z,18.80
2019-04-21T18:53:04.860Z,18.90
2019-04-21T18:56:03.748Z,18.90
2019-04-21T18:59:04.587Z,18.70
2019-04-21T19:02:11.233Z,18.60
2019-04-21T19:05:21.039Z,18.40
2019-04-21T19:08:39.249Z,18.20
2019-04-21T19:11:49.945Z,18.10
2019-04-21T19:14:51.057Z,18.00
2019-04-21T19:18:29.650Z,17.80
2019-04-21T19:21:00.270Z,17.70
2019-04-21T19:24:17.884Z,17.60
2019-04-21T19:27:17.619Z,17.50
2019-04-21T19:33:29.640Z,17.40
2019-04-21T19:36:21.559Z,17.30
2019-04-21T19:39:39.168Z,17.20
2019-04-21T19:42:43.770Z,17.00
2019-04-21T19:45:54.096Z,16.90
2019-04-21T19:49:10.683Z,16.70
2019-04-21T19:52:01.286Z,16.50
2019-04-21T19:54:58.641Z,16.40
2019-04-21T19:58:05.097Z,16.30
2019-04-21T20:01:11.782Z,16.30
2019-04-21T20:04:16.912Z,16.20
2019-04-21T20:07:38.191Z,16.20
2019-04-21T20:10:48.465Z,16.10
2019-04-21T20:14:13.713Z,16.00
2019-04-21T20:16:54.485Z,15.80
2019-04-21T20:19:47.899Z,15.70
2019-04-21T20:22:54.235Z,15.50
2019-04-21T20:26:02.429Z,15.50
2019-04-21T20:29:22.998Z,15.30
2019-04-21T20:35:46.906Z,15.00
2019-04-21T20:38:35.804Z,14.90
2019-04-21T20:41:40.944Z,14.80
2019-04-21T20:45:14.812Z,14.80
2019-04-21T20:47:48.983Z,14.60
2019-04-21T20:51:06.408Z,14.50
2019-04-21T20:54:17.602Z,14.50
2019-04-21T20:57:18.986Z,14.50
2019-04-21T21:00:33.998Z,14.30
2019-04-21T21:03:34.904Z,14.20
2019-04-21T21:06:38.483Z,14.10
2019-04-21T21:09:52.258Z,14.00
2019-04-21T21:13:00.597Z,13.90
2019-04-21T21:16:10.230Z,13.80
2019-04-21T21:22:06.023Z,13.70
2019-04-21T21:25:25.587Z,13.60
2019-04-21T21:28:22.566Z,13.60
2019-04-21T21:31:31.304Z,13.50
2019-04-21T21:34:42.559Z,13.40
2019-04-21T21:37:49.530Z,13.40
2019-04-21T21:40:45.567Z,13.30
2019-04-21T21:43:39.438Z,13.10
2019-04-21T21:46:58.894Z,13.00
2019-04-21T21:50:01.196Z,12.90
2019-04-21T21:53:04.270Z,12.90
2019-04-21T21:56:04.570Z,12.90
2019-04-21T21:59:15.964Z,12.90
2019-04-21T22:02:26.239Z,12.80
2019-04-21T22:05:26.031Z,12.60
2019-04-21T22:08:30.443Z,12.60
2019-04-21T22:11:35.879Z,12.50
2019-04-21T22:14:44.910Z,12.40
2019-04-21T22:18:07.332Z,12.30
2019-04-21T22:21:09.110Z,12.30
2019-04-21T22:24:08.720Z,12.20
2019-04-21T22:27:07.360Z,12.20
2019-04-21T22:30:14.659Z,12.10
2019-04-21T22:33:21.286Z,12.10
2019-04-21T22:36:35.518Z,12.10
2019-04-21T22:39:48.603Z,12.10
2019-04-21T22:42:50.104Z,12.00
2019-04-21T22:45:45.373Z,11.90
2019-04-21T22:48:53.123Z,11.80
2019-04-21T22:52:00.794Z,11.80
2019-04-21T22:55:08.254Z,11.70
2019-04-21T22:58:09.625Z,11.70
2019-04-21T23:01:20.111Z,11.60
2019-04-21T23:04:21.023Z,11.60
2019-04-21T23:07:26.623Z,11.60
2019-04-21T23:10:32.401Z,11.50
2019-04-21T23:13:40.042Z,11.40
2019-04-21T23:16:45.609Z,11.40
2019-04-21T23:20:09.528Z,11.40
2019-04-21T23:23:17.616Z,11.40
2019-04-21T23:26:23.757Z,11.30
2019-04-21T23:29:39.331Z,11.20
2019-04-21T23:32:29.424Z,11.10
2019-04-21T23:35:27.779Z,11.10
2019-04-21T23:38:34.939Z,11.10
2019-04-21T23:41:40.467Z,11.10
2019-04-21T23:44:47.032Z,11.10
2019-04-21T23:47:57.927Z,11.00
2019-04-21T23:51:01.866Z,10.90
2019-04-21T23:53:59.535Z,10.90
2019-04-21T23:57:14.206Z,10.80
